Cedar Bluff, Virginia
Current Conditions -  °F | °C
As of 11:15 AM on Monday 26 Jan 2015 (Local Time) from KJFZ Reporting Station
Overcast Overcast  
Wind Chill: 28°   Ceiling: 500
Heat Index: 36°   Visibility: 7mi
Dew Point: 33°   Wind: 10mph
Humidity: 92%   Direction: 290°WNW
Pressure: 29.67"   Gusts: NA
Location:  37.09°N, 81.76°W
Report Text: KJFZ 261615Z AUTO 29009KT 7SM OVC005 02/01 A2967 RMK AO2 T00200008
Loading
Personal Weather Stations






























Interactive Weather Map New forecast layout! Learn more

10-Day Weather Forecast

Advertisements
Track Severe Weather on mobile